Terminal Aerodrome Forecast
Issued by NWS

Home | Current Version | Previous Version | Text Only | Print | Product List | Glossary On
Versions: 1 2 3 4 5 6 7 8 9 10 11 12 13
345
FTUS43 KPAH 261723
TAFCGI
TAF
KCGI 261723Z 2618/2718 VRB04KT P6SM SCT100
     FM262200 VRB02KT P6SM VCSH SCT050 BKN100
     FM270700 06003KT P6SM BKN050=

USA.gov is the U.S. government's official web portal to all federal, state and local government web resources and services.